createdAt,value
2023-01-11T00:00:55.859Z,67.70
2023-01-11T00:03:22.793Z,68.00
2023-01-11T00:05:49.898Z,68.20
2023-01-11T00:08:16.872Z,68.50
2023-01-11T00:10:43.799Z,68.60
2023-01-11T00:13:10.715Z,68.70
2023-01-11T00:15:38.556Z,68.90
2023-01-11T00:18:05.637Z,69.00
2023-01-11T00:20:32.962Z,69.20
2023-01-11T00:22:59.896Z,70.10
2023-01-11T00:25:27.166Z,69.40
2023-01-11T00:27:54.609Z,69.30
2023-01-11T00:30:21.847Z,69.40
2023-01-11T00:32:48.792Z,69.50
2023-01-11T00:35:16.055Z,69.50
2023-01-11T00:37:42.926Z,69.60
2023-01-11T00:40:10.359Z,69.70
2023-01-11T00:42:55.776Z,69.70
2023-01-11T00:45:41.459Z,69.70
2023-01-11T00:48:10.710Z,69.70
2023-01-11T00:50:56.762Z,69.80
2023-01-11T00:53:56.065Z,70.10
2023-01-11T00:56:31.556Z,70.40
2023-01-11T00:59:03.009Z,70.50
2023-01-11T01:01:37.250Z,70.80
2023-01-11T01:04:11.616Z,71.00
2023-01-11T01:06:38.603Z,71.40
2023-01-11T01:09:05.586Z,71.80
2023-01-11T01:11:32.488Z,71.90
2023-01-11T01:14:18.072Z,72.30
2023-01-11T01:16:47.448Z,72.50
2023-01-11T01:19:14.660Z,72.70
2023-01-11T01:21:41.824Z,72.90
2023-01-11T01:24:09.064Z,73.00
2023-01-11T01:26:36.062Z,73.20
2023-01-11T01:29:03.214Z,73.40
2023-01-11T01:31:30.165Z,73.50
2023-01-11T01:33:57.804Z,73.60
2023-01-11T01:36:24.947Z,73.60
2023-01-11T01:38:51.881Z,73.60
2023-01-11T01:41:19.416Z,73.70
2023-01-11T01:43:51.484Z,73.80
2023-01-11T01:46:21.067Z,73.90
2023-01-11T01:48:55.117Z,74.00
2023-01-11T01:51:27.634Z,74.10
2023-01-11T01:53:59.054Z,74.10
2023-01-11T01:56:31.588Z,74.10
2023-01-11T01:59:04.469Z,74.10
2023-01-11T02:01:49.867Z,74.00
2023-01-11T02:04:40.152Z,74.00
2023-01-11T02:07:17.701Z,74.00
2023-01-11T02:09:53.241Z,73.80
2023-01-11T02:12:20.261Z,73.80
2023-01-11T02:14:49.385Z,73.90
2023-01-11T02:17:16.416Z,73.80
2023-01-11T02:20:07.764Z,73.70
2023-01-11T02:22:43.533Z,73.70
2023-01-11T02:25:38.313Z,73.60
2023-01-11T02:28:19.477Z,73.60
2023-01-11T02:31:14.791Z,73.50
2023-01-11T02:33:53.686Z,73.40
2023-01-11T02:36:38.748Z,73.40
2023-01-11T02:39:15.647Z,73.30
2023-01-11T02:42:20.118Z,73.10
2023-01-11T02:45:02.058Z,73.10
2023-01-11T02:47:37.784Z,72.90
2023-01-11T02:50:18.219Z,72.80
2023-01-11T02:52:45.142Z,72.80
2023-01-11T02:55:15.373Z,72.70
2023-01-11T02:57:44.698Z,72.70
2023-01-11T03:00:13.297Z,72.60
2023-01-11T03:02:40.165Z,72.50
2023-01-11T03:05:13.179Z,72.40
2023-01-11T03:08:01.352Z,72.20
2023-01-11T03:10:54.425Z,72.10
2023-01-11T03:13:21.287Z,72.00
2023-01-11T03:16:16.064Z,71.90
2023-01-11T03:19:09.255Z,72.00
2023-01-11T03:21:54.844Z,71.80
2023-01-11T03:25:00.256Z,71.80
2023-01-11T03:27:38.962Z,71.80
2023-01-11T03:30:25.282Z,71.80
2023-01-11T03:33:05.419Z,71.70
2023-01-11T03:35:59.103Z,71.70
2023-01-11T03:38:55.982Z,71.70
2023-01-11T03:41:27.724Z,71.80
2023-01-11T03:43:58.082Z,71.80
2023-01-11T03:46:31.624Z,71.90
2023-01-11T03:49:00.511Z,71.90
2023-01-11T03:51:30.837Z,72.00
2023-01-11T03:54:04.174Z,72.00
2023-01-11T03:56:43.403Z,72.10
2023-01-11T03:59:10.605Z,72.10
2023-01-11T04:01:38.208Z,72.20
2023-01-11T04:04:05.175Z,72.20
2023-01-11T04:06:36.344Z,72.40
2023-01-11T04:09:04.391Z,72.40
2023-01-11T04:11:31.333Z,72.40
2023-01-11T04:13:58.221Z,72.50
2023-01-11T04:16:25.318Z,72.60
2023-01-11T04:18:52.222Z,72.60
2023-01-11T04:21:19.071Z,73.10
2023-01-11T04:23:46.025Z,73.60
2023-01-11T04:26:12.902Z,74.10
2023-01-11T04:28:40.262Z,74.60
2023-01-11T04:31:07.186Z,74.90
2023-01-11T04:33:34.186Z,75.20
2023-01-11T04:36:08.833Z,75.40
2023-01-11T04:38:35.935Z,75.60
2023-01-11T04:41:23.513Z,75.70
2023-01-11T04:43:53.612Z,75.70
2023-01-11T04:46:20.524Z,76.40
2023-01-11T04:48:47.412Z,75.70
2023-01-11T04:51:14.414Z,75.60
2023-01-11T04:53:41.288Z,75.70
2023-01-11T04:56:09.167Z,75.70
2023-01-11T04:58:38.226Z,75.60
2023-01-11T05:01:10.137Z,75.60
2023-01-11T05:03:37.410Z,75.50
2023-01-11T05:06:05.023Z,75.60
2023-01-11T05:08:32.249Z,75.50
2023-01-11T05:11:05.750Z,75.60
2023-01-11T05:13:42.098Z,75.60
2023-01-11T05:16:14.840Z,75.60
2023-01-11T05:18:43.307Z,75.60
2023-01-11T05:21:12.852Z,75.60
2023-01-11T05:23:42.423Z,75.70
2023-01-11T05:26:18.419Z,75.80
2023-01-11T05:28:49.023Z,75.90
2023-01-11T05:31:16.913Z,76.00
2023-01-11T05:33:44.502Z,76.90
2023-01-11T05:36:22.580Z,76.20
2023-01-11T05:38:51.002Z,76.20
2023-01-11T05:41:20.143Z,76.40
2023-01-11T05:44:08.266Z,76.40
2023-01-11T05:46:37.534Z,76.50
2023-01-11T05:49:05.383Z,76.50
2023-01-11T05:51:35.465Z,76.60
2023-01-11T05:54:04.578Z,76.60
2023-01-11T05:56:31.799Z,76.60
2023-01-11T05:58:58.822Z,76.70
2023-01-11T06:01:26.279Z,76.60
2023-01-11T06:03:53.361Z,76.60
2023-01-11T06:06:20.789Z,76.60
2023-01-11T06:08:48.009Z,76.70
2023-01-11T06:11:15.741Z,76.80
2023-01-11T06:13:43.050Z,76.80
2023-01-11T06:16:12.717Z,76.90
2023-01-11T06:18:41.881Z,76.90
2023-01-11T06:21:09.657Z,77.00
2023-01-11T06:23:41.131Z,77.00
2023-01-11T06:26:11.583Z,76.90
2023-01-11T06:28:39.184Z,77.60
2023-01-11T06:31:06.759Z,76.70
2023-01-11T06:33:34.096Z,76.60
2023-01-11T06:36:05.314Z,76.50
2023-01-11T06:38:32.359Z,76.50
2023-01-11T06:41:02.371Z,76.40
2023-01-11T06:43:31.101Z,76.20
2023-01-11T06:45:59.174Z,76.20
2023-01-11T06:48:26.979Z,76.10
2023-01-11T06:50:56.972Z,75.80
2023-01-11T06:53:28.312Z,75.80
2023-01-11T06:55:57.584Z,75.70
2023-01-11T06:58:26.030Z,75.60
2023-01-11T07:00:55.158Z,75.40
2023-01-11T07:03:24.398Z,75.20
2023-01-11T07:05:53.539Z,75.10
2023-01-11T07:08:20.879Z,74.90
2023-01-11T07:10:48.289Z,74.70
2023-01-11T07:13:17.235Z,74.50
2023-01-11T07:15:45.581Z,74.20
2023-01-11T07:18:12.757Z,74.00
2023-01-11T07:20:39.863Z,73.60
2023-01-11T07:23:10.831Z,73.40
2023-01-11T07:25:37.751Z,73.20
2023-01-11T07:28:07.584Z,73.00
2023-01-11T07:30:51.708Z,73.00
2023-01-11T07:33:22.895Z,73.00
2023-01-11T07:35:50.045Z,72.90
2023-01-11T07:38:16.939Z,72.90
2023-01-11T07:40:43.893Z,72.80
2023-01-11T07:43:16.499Z,72.80
2023-01-11T07:45:47.081Z,72.60
2023-01-11T07:48:15.604Z,72.60
2023-01-11T07:50:44.749Z,72.60
2023-01-11T07:53:12.729Z,72.50
2023-01-11T07:55:40.359Z,72.40
2023-01-11T07:58:12.336Z,72.40
2023-01-11T08:00:41.180Z,72.40
2023-01-11T08:03:08.807Z,72.40
2023-01-11T08:05:36.011Z,72.40
2023-01-11T08:08:03.485Z,72.40
2023-01-11T08:10:30.688Z,72.40
2023-01-11T08:13:16.295Z,72.50
2023-01-11T08:15:43.449Z,72.50
2023-01-11T08:18:12.190Z,72.50
2023-01-11T08:20:40.299Z,72.50
2023-01-11T08:23:09.026Z,72.40
2023-01-11T08:25:36.353Z,72.40
2023-01-11T08:28:07.587Z,72.40
2023-01-11T08:30:36.405Z,72.50
2023-01-11T08:33:06.182Z,72.50
2023-01-11T08:35:38.189Z,72.50
2023-01-11T08:38:05.169Z,72.50
2023-01-11T08:40:32.133Z,72.60
2023-01-11T08:42:59.330Z,72.60
2023-01-11T08:45:26.558Z,72.60
2023-01-11T08:47:54.020Z,72.70
2023-01-11T08:50:22.116Z,72.60
2023-01-11T08:52:50.734Z,72.60
2023-01-11T08:55:18.082Z,72.60
2023-01-11T08:57:46.067Z,72.60
2023-01-11T09:00:14.141Z,72.60
2023-01-11T09:02:41.668Z,72.50
2023-01-11T09:05:09.604Z,72.50
2023-01-11T09:07:37.720Z,72.60
2023-01-11T09:10:05.304Z,72.50
2023-01-11T09:12:32.826Z,72.60
2023-01-11T09:15:00.332Z,72.60
2023-01-11T09:17:27.501Z,72.60
2023-01-11T09:19:54.477Z,72.50
2023-01-11T09:22:21.447Z,72.20
2023-01-11T09:24:48.316Z,72.10
2023-01-11T09:27:15.351Z,72.10
2023-01-11T09:29:42.374Z,71.90
2023-01-11T09:32:09.261Z,71.80
2023-01-11T09:34:36.283Z,71.80
2023-01-11T09:37:06.801Z,71.70
2023-01-11T09:39:35.185Z,71.60
2023-01-11T09:42:15.125Z,71.70
2023-01-11T09:44:56.824Z,71.50
2023-01-11T09:48:19.594Z,71.50
2023-01-11T09:50:48.748Z,71.40
2023-01-11T09:53:20.715Z,71.30
2023-01-11T09:55:52.152Z,71.20
2023-01-11T09:58:34.806Z,71.20
2023-01-11T10:01:14.707Z,71.20
2023-01-11T10:03:59.872Z,71.40
2023-01-11T10:06:51.322Z,71.90
2023-01-11T10:18:34.388Z,73.60
2023-01-11T10:19:18.482Z,74.50
2023-01-11T10:21:46.527Z,75.80
2023-01-11T10:24:48.609Z,77.20
2023-01-11T10:27:35.652Z,78.10
2023-01-11T10:30:33.303Z,78.90
2023-01-11T10:34:02.302Z,79.20
2023-01-11T10:36:51.293Z,79.50
2023-01-11T10:39:24.942Z,79.80
2023-01-11T10:42:11.681Z,79.90
2023-01-11T10:44:44.405Z,80.00
2023-01-11T10:47:19.433Z,80.00
2023-01-11T10:49:59.728Z,80.10
2023-01-11T10:52:41.773Z,80.20
2023-01-11T10:55:15.414Z,80.30
2023-01-11T10:57:59.423Z,80.20
2023-01-11T11:01:08.529Z,80.20
2023-01-11T11:03:35.510Z,79.90
2023-01-11T11:06:18.072Z,79.70
2023-01-11T11:08:48.387Z,79.60
2023-01-11T11:11:15.290Z,79.50
2023-01-11T11:14:16.374Z,79.60
2023-01-11T11:16:58.888Z,79.60
2023-01-11T11:19:31.603Z,79.50
2023-01-11T11:21:59.253Z,79.50
2023-01-11T11:24:38.035Z,79.50
2023-01-11T11:27:37.027Z,79.50
2023-01-11T11:30:04.664Z,79.40
2023-01-11T11:32:37.847Z,79.30
2023-01-11T11:35:07.783Z,79.60
2023-01-11T11:37:38.668Z,80.20
2023-01-11T11:40:06.379Z,80.80
2023-01-11T11:42:33.294Z,81.20
2023-01-11T11:45:09.471Z,82.00
2023-01-11T11:47:37.741Z,83.00
2023-01-11T11:50:41.936Z,83.90
2023-01-11T11:53:07.451Z,85.30
2023-01-11T11:55:35.766Z,86.30
2023-01-11T11:58:08.618Z,87.00
2023-01-11T12:00:41.625Z,87.50
2023-01-11T12:03:30.567Z,88.10
2023-01-11T12:06:04.377Z,88.60
2023-01-11T12:08:35.467Z,89.00
2023-01-11T12:11:07.389Z,89.30
2023-01-11T12:13:39.639Z,89.50
2023-01-11T12:16:21.837Z,89.80
2023-01-11T12:18:48.897Z,89.70
2023-01-11T12:21:20.351Z,89.60
2023-01-11T12:23:48.148Z,89.50
2023-01-11T12:26:32.984Z,89.40
2023-01-11T12:29:22.155Z,89.30
2023-01-11T12:31:49.136Z,89.50
2023-01-11T12:34:43.309Z,89.40
2023-01-11T12:37:25.773Z,89.20
2023-01-11T12:40:01.050Z,89.10
2023-01-11T12:43:01.706Z,89.30
2023-01-11T12:45:54.909Z,89.40
2023-01-11T12:48:33.895Z,89.70
2023-01-11T12:51:26.913Z,89.80
2023-01-11T12:54:10.385Z,89.90
2023-01-11T12:56:40.171Z,89.90
2023-01-11T12:59:16.239Z,89.90
2023-01-11T13:02:06.289Z,89.80
2023-01-11T13:04:53.903Z,89.60
2023-01-11T13:08:03.708Z,89.50
2023-01-11T13:10:49.789Z,89.50
2023-01-11T13:13:24.123Z,89.30
2023-01-11T13:15:54.155Z,89.10
2023-01-11T13:19:02.352Z,88.80
2023-01-11T13:21:43.358Z,88.60
2023-01-11T13:24:28.261Z,88.40
2023-01-11T13:27:04.240Z,88.00
2023-01-11T13:29:37.749Z,87.60
2023-01-11T13:32:08.787Z,87.40
2023-01-11T13:35:16.677Z,86.90
2023-01-11T13:37:50.647Z,86.40
2023-01-11T13:40:28.733Z,85.50
2023-01-11T13:43:13.804Z,84.90
2023-01-11T13:45:48.302Z,84.60
2023-01-11T13:48:46.026Z,84.20
2023-01-11T13:51:38.886Z,83.80
2023-01-11T13:54:15.600Z,83.60
2023-01-11T13:56:48.265Z,83.20
2023-01-11T13:59:39.623Z,83.10
2023-01-11T14:02:38.048Z,83.10
2023-01-11T14:05:21.530Z,82.80
2023-01-11T14:08:06.986Z,83.80
2023-01-11T14:10:44.739Z,85.30
2023-01-11T14:13:47.844Z,86.20
2023-01-11T14:16:43.121Z,87.50
2023-01-11T14:19:37.355Z,90.00
2023-01-11T14:22:31.548Z,90.20
2023-01-11T14:25:14.261Z,90.80
2023-01-11T14:27:57.823Z,91.40
2023-01-11T14:31:01.676Z,91.80
2023-01-11T14:33:52.105Z,92.20
2023-01-11T14:36:47.150Z,92.30
2023-01-11T14:40:04.727Z,92.40
2023-01-11T14:42:46.883Z,92.60
2023-01-11T14:45:52.235Z,92.80
2023-01-11T14:48:25.411Z,92.90
2023-01-11T14:51:28.187Z,92.60
2023-01-11T14:54:10.771Z,92.80
2023-01-11T14:56:44.001Z,92.80
2023-01-11T14:59:34.314Z,92.80
2023-01-11T15:02:04.405Z,92.90
2023-01-11T15:04:32.987Z,93.10
2023-01-11T15:07:00.930Z,93.00
2023-01-11T15:09:53.226Z,92.90
2023-01-11T15:12:31.894Z,93.20
2023-01-11T15:15:06.479Z,93.20
2023-01-11T15:17:52.973Z,93.30
2023-01-11T15:20:22.055Z,93.30
2023-01-11T15:23:16.824Z,93.30
2023-01-11T15:25:48.007Z,93.40
2023-01-11T15:28:37.929Z,93.30
2023-01-11T15:31:06.141Z,93.40
2023-01-11T15:33:48.740Z,93.50
2023-01-11T15:36:15.699Z,93.40
2023-01-11T15:38:54.141Z,93.50
2023-01-11T15:42:06.847Z,93.50
2023-01-11T15:44:58.429Z,93.40
2023-01-11T15:47:40.622Z,93.20
2023-01-11T15:50:32.342Z,93.10
2023-01-11T15:53:27.161Z,93.10
2023-01-11T15:56:12.869Z,93.10
2023-01-11T15:59:01.478Z,93.10
2023-01-11T16:01:28.972Z,93.20
2023-01-11T16:04:00.751Z,93.10
2023-01-11T16:06:33.487Z,93.30
2023-01-11T16:09:25.323Z,93.20
2023-01-11T16:12:23.533Z,93.10
2023-01-11T16:15:09.062Z,92.80
2023-01-11T16:17:40.942Z,92.90
2023-01-11T16:20:20.191Z,92.80
2023-01-11T16:22:50.287Z,92.80
2023-01-11T16:25:17.992Z,92.70
2023-01-11T16:27:52.799Z,92.50
2023-01-11T16:30:20.419Z,92.50
2023-01-11T16:32:47.386Z,92.50
2023-01-11T16:35:23.626Z,92.10
2023-01-11T16:37:56.439Z,92.10
2023-01-11T16:40:37.563Z,92.10
2023-01-11T16:43:28.319Z,92.10
2023-01-11T16:45:56.218Z,92.30
2023-01-11T16:48:26.909Z,91.90
2023-01-11T16:51:14.276Z,91.70
2023-01-11T16:53:43.982Z,91.70
2023-01-11T16:56:18.822Z,91.60
2023-01-11T16:59:15.109Z,91.50
2023-01-11T17:02:26.299Z,91.40
2023-01-11T17:04:54.291Z,91.40
2023-01-11T17:07:30.684Z,91.10
2023-01-11T17:10:18.726Z,91.20
2023-01-11T17:12:48.655Z,91.20
2023-01-11T17:15:31.342Z,91.30
2023-01-11T17:18:03.647Z,91.30
2023-01-11T17:20:31.532Z,91.10
2023-01-11T17:22:59.119Z,91.00
2023-01-11T17:25:44.443Z,91.00
2023-01-11T17:28:18.825Z,91.10
2023-01-11T17:30:48.777Z,91.20
2023-01-11T17:33:32.342Z,91.20
2023-01-11T17:36:00.315Z,91.10
2023-01-11T17:38:28.592Z,91.00
2023-01-11T17:41:01.167Z,90.80
2023-01-11T17:43:48.110Z,90.80
2023-01-11T17:46:22.062Z,90.70
2023-01-11T17:48:57.386Z,90.60
2023-01-11T17:51:31.460Z,90.40
2023-01-11T17:53:58.560Z,90.30
2023-01-11T17:56:42.051Z,90.20
2023-01-11T17:59:23.542Z,89.60
2023-01-11T18:02:04.538Z,88.80
2023-01-11T18:04:32.203Z,88.40
2023-01-11T18:07:07.872Z,88.00
2023-01-11T18:09:42.814Z,87.40
2023-01-11T18:12:12.843Z,87.10
2023-01-11T18:14:47.093Z,86.70
2023-01-11T18:17:32.969Z,86.60
2023-01-11T18:20:01.611Z,86.50
2023-01-11T18:22:37.205Z,86.50
2023-01-11T18:25:25.677Z,86.50
2023-01-11T18:28:12.949Z,86.70
2023-01-11T18:30:42.261Z,87.00
2023-01-11T18:33:22.729Z,87.30
2023-01-11T18:35:52.868Z,88.20
2023-01-11T18:38:24.679Z,87.50
2023-01-11T18:40:53.544Z,87.60
2023-01-11T18:43:26.392Z,87.90
2023-01-11T18:45:53.288Z,87.90
2023-01-11T18:48:20.831Z,87.90
2023-01-11T18:50:49.378Z,88.00
2023-01-11T18:53:16.944Z,87.80
2023-01-11T18:55:45.466Z,87.70
2023-01-11T18:58:12.458Z,87.70
2023-01-11T19:00:41.096Z,87.70
2023-01-11T19:03:10.249Z,87.70
2023-01-11T19:05:37.622Z,88.60
2023-01-11T19:08:04.781Z,87.80
2023-01-11T19:10:31.876Z,87.60
2023-01-11T19:12:58.847Z,87.00
2023-01-11T19:15:26.287Z,86.70
2023-01-11T19:17:54.424Z,86.20
2023-01-11T19:20:21.432Z,86.00
2023-01-11T19:22:48.581Z,85.70
2023-01-11T19:25:15.806Z,86.20
2023-01-11T19:27:43.585Z,85.10
2023-01-11T19:30:12.065Z,85.10
2023-01-11T19:32:39.092Z,85.10
2023-01-11T19:35:08.195Z,85.20
2023-01-11T19:37:37.670Z,85.20
2023-01-11T19:40:05.793Z,85.30
2023-01-11T19:42:33.153Z,85.40
2023-01-11T19:45:00.143Z,85.40
2023-01-11T19:47:27.172Z,85.60
2023-01-11T19:49:56.470Z,85.70
2023-01-11T19:52:23.614Z,85.70
2023-01-11T19:54:51.386Z,85.60
2023-01-11T19:57:20.665Z,85.30
2023-01-11T19:59:48.898Z,85.00
2023-01-11T20:02:18.863Z,84.70
2023-01-11T20:04:46.204Z,85.20
2023-01-11T20:07:13.990Z,84.30
2023-01-11T20:09:41.319Z,84.20
2023-01-11T20:12:10.964Z,83.80
2023-01-11T20:14:40.448Z,83.60
2023-01-11T20:17:07.987Z,83.60
2023-01-11T20:19:34.962Z,83.60
2023-01-11T20:22:02.140Z,83.40
2023-01-11T20:24:30.166Z,83.50
2023-01-11T20:27:00.320Z,83.50
2023-01-11T20:29:27.764Z,83.70
2023-01-11T20:31:55.104Z,83.80
2023-01-11T20:34:22.148Z,83.70
2023-01-11T20:36:49.324Z,84.00
2023-01-11T20:39:17.660Z,84.10
2023-01-11T20:41:47.439Z,84.20
2023-01-11T20:44:27.347Z,84.40
2023-01-11T20:46:56.055Z,84.60
2023-01-11T20:49:29.381Z,84.70
2023-01-11T20:51:56.669Z,84.80
2023-01-11T20:54:24.012Z,84.80
2023-01-11T20:56:51.323Z,85.00
2023-01-11T20:59:20.405Z,84.70
2023-01-11T21:01:48.191Z,84.30
2023-01-11T21:04:16.411Z,84.00
2023-01-11T21:06:45.900Z,83.30
2023-01-11T21:09:17.804Z,83.00
2023-01-11T21:11:52.365Z,82.60
2023-01-11T21:14:20.027Z,82.40
2023-01-11T21:16:46.996Z,82.40
2023-01-11T21:19:15.688Z,82.40
2023-01-11T21:21:43.616Z,82.40
2023-01-11T21:24:13.388Z,82.60
2023-01-11T21:26:42.282Z,82.70
2023-01-11T21:29:11.594Z,82.70
2023-01-11T21:31:39.671Z,82.60
2023-01-11T21:34:06.922Z,82.40
2023-01-11T21:36:34.540Z,82.20
2023-01-11T21:39:02.732Z,82.00
2023-01-11T21:41:50.670Z,81.80
2023-01-11T21:44:18.795Z,81.60
2023-01-11T21:46:47.242Z,81.40
2023-01-11T21:49:14.715Z,81.30
2023-01-11T21:51:42.885Z,81.20
2023-01-11T21:54:12.807Z,81.10
2023-01-11T21:56:41.788Z,81.10
2023-01-11T21:59:09.152Z,81.40
2023-01-11T22:01:39.631Z,81.50
2023-01-11T22:04:07.905Z,81.60
2023-01-11T22:06:39.973Z,81.80
2023-01-11T22:09:09.300Z,81.90
2023-01-11T22:11:36.255Z,82.10
2023-01-11T22:14:04.896Z,82.30
2023-01-11T22:16:32.523Z,82.40
2023-01-11T22:19:00.010Z,82.30
2023-01-11T22:21:27.906Z,82.40
2023-01-11T22:23:57.275Z,82.60
2023-01-11T22:26:25.033Z,82.50
2023-01-11T22:29:14.672Z,82.60
2023-01-11T22:31:43.405Z,83.40
2023-01-11T22:34:11.779Z,82.50
2023-01-11T22:36:39.225Z,82.50
2023-01-11T22:39:06.749Z,82.50
2023-01-11T22:41:33.670Z,82.50
2023-01-11T22:44:00.729Z,82.50
2023-01-11T22:46:28.334Z,82.50
2023-01-11T22:48:55.446Z,82.50
2023-01-11T22:51:24.869Z,82.60
2023-01-11T22:53:53.569Z,82.40
2023-01-11T22:56:24.817Z,82.30
2023-01-11T22:58:58.607Z,82.20
2023-01-11T23:01:31.262Z,82.00
2023-01-11T23:03:59.148Z,82.00
2023-01-11T23:06:31.964Z,82.20
2023-01-11T23:08:59.252Z,82.10
2023-01-11T23:11:47.872Z,81.90
2023-01-11T23:14:17.750Z,81.80
2023-01-11T23:16:45.836Z,81.90
2023-01-11T23:19:15.457Z,81.80
2023-01-11T23:21:43.850Z,81.70
2023-01-11T23:24:14.497Z,81.80
2023-01-11T23:26:41.753Z,81.70
2023-01-11T23:29:08.889Z,81.70
2023-01-11T23:31:36.356Z,81.50
2023-01-11T23:34:04.443Z,81.50
2023-01-11T23:36:33.849Z,81.40
2023-01-11T23:39:01.082Z,81.10
2023-01-11T23:41:46.676Z,81.10
2023-01-11T23:44:15.576Z,81.00
2023-01-11T23:47:02.572Z,81.00
2023-01-11T23:49:31.257Z,81.10
2023-01-11T23:51:58.773Z,81.20
2023-01-11T23:54:31.164Z,81.00
2023-01-11T23:56:59.006Z,80.80
2023-01-11T23:59:26.635Z,80.70
